Time;durP1;ratioP1;P1;durP2;ratioP2;P2;SDS_P1;SDS_P2;PMS_P1;PMS_P2;Temp;Humidity;BMP_temperature;BMP_pressure;BME280_temperature;BME280_humidity;BME280_pressure;Samples;Min_cycle;Max_cycle;Signal;HPM_P1;HPM_P2
2022/12/15 00:41:05;;;;;;;;;;;-0.80;99.90;;;;;;5027242;28;19929;-72
2022/12/15 00:43:36;;;;;;;;;;;-0.80;99.90;;;;;;5023318;28;19991;-72
2022/12/15 00:48:58;;;;;;;;;;;-0.80;99.90;;;;;;5023622;28;19936;-72
2022/12/15 01:22:39;;;;;;;;;;;-0.70;99.90;;;;;;5024508;28;20338;-72
2022/12/15 01:25:11;;;;;;;;;;;-0.70;99.90;;;;;;5002158;28;19932;-72
2022/12/15 01:27:43;;;;;;;;;;;-0.70;99.90;;;;;;5017057;28;19929;-72
2022/12/15 01:30:11;;;;;;;;;;;-0.70;99.90;;;;;;5000516;28;20280;-72
2022/12/15 01:32:38;;;;;;;;;;;-0.70;99.90;;;;;;5021058;28;19926;-72
2022/12/15 01:35:10;;;;;;;;;;;-0.70;99.90;;;;;;5026309;28;19936;-72
2022/12/15 01:37:42;;;;;;;;;;;-0.70;99.90;;;;;;5024344;28;20549;-72
2022/12/15 01:43:02;;;;;;;;;;;-0.70;99.90;;;;;;5022633;28;19928;-72
2022/12/15 01:45:40;;;;;;;;;;;-0.70;99.90;;;;;;5004022;28;20342;-72
2022/12/15 01:48:13;;;;;;;;;;;-0.70;99.90;;;;;;5024436;28;19975;-72
2022/12/15 01:50:55;;;;;;;;;;;-0.70;99.90;;;;;;5021507;28;19929;-72
2022/12/15 01:53:29;;;;;;;;;;;-0.70;99.90;;;;;;5018974;28;20441;-72
2022/12/15 01:56:02;;;;;;;;;;;-0.70;99.90;;;;;;5028201;28;19929;-72
2022/12/15 01:58:35;;;;;;;;;;;-0.70;99.90;;;;;;5026902;28;19932;-72
2022/12/15 02:01:06;;;;;;;;;;;-0.80;99.90;;;;;;5033764;28;20390;-72
2022/12/15 02:03:38;;;;;;;;;;;-0.80;99.90;;;;;;4996818;28;19926;-72
2022/12/15 02:06:11;;;;;;;;;;;-0.80;99.90;;;;;;5019952;28;20043;-72
2022/12/15 02:08:44;;;;;;;;;;;-0.90;99.90;;;;;;5028490;28;19925;-72
2022/12/15 02:11:35;;;;;;;;;;;-0.90;99.90;;;;;;5004021;28;19936;-72
2022/12/15 02:14:08;;;;;;;;;;;-0.90;99.90;;;;;;5026289;28;19983;-72
2022/12/15 02:16:59;;;;;;;;;;;-0.90;99.90;;;;;;5022276;28;19929;-72
2022/12/15 02:19:40;;;;;;;;;;;-0.80;99.90;;;;;;5026875;28;19929;-72
2022/12/15 02:22:17;;;;;;;;;;;-0.80;99.90;;;;;;5022503;28;19929;-72
2022/12/15 02:24:55;;;;;;;;;;;-0.80;99.90;;;;;;5020544;28;19925;-72
2022/12/15 02:27:33;;;;;;;;;;;-0.80;99.90;;;;;;5025678;28;19929;-72
2022/12/15 02:30:20;;;;;;;;;;;-0.90;99.90;;;;;;5011932;28;19944;-72
2022/12/15 02:32:55;;;;;;;;;;;-0.90;99.90;;;;;;5015474;28;19929;-72
2022/12/15 02:35:31;;;;;;;;;;;-0.90;99.90;;;;;;5015186;28;19925;-72
2022/12/15 02:38:02;;;;;;;;;;;-0.90;99.90;;;;;;5021109;28;20488;-72
2022/12/15 02:40:34;;;;;;;;;;;-0.90;99.90;;;;;;5027734;28;19929;-72
2022/12/15 02:43:07;;;;;;;;;;;-0.90;99.90;;;;;;5028094;28;20417;-73
2022/12/15 02:46:03;;;;;;;;;;;-0.90;99.90;;;;;;5024715;28;19984;-72
2022/12/15 02:48:35;;;;;;;;;;;-1.00;99.90;;;;;;5024919;28;19976;-72
2022/12/15 02:51:25;;;;;;;;;;;-0.90;99.90;;;;;;5027531;28;20060;-72
2022/12/15 02:54:15;;;;;;;;;;;-0.90;99.90;;;;;;5028630;28;20016;-72
2022/12/15 02:57:02;;;;;;;;;;;-0.90;99.90;;;;;;5007617;28;19979;-72
2022/12/15 02:59:39;;;;;;;;;;;-1.00;99.90;;;;;;5002306;28;19982;-72
2022/12/15 03:02:12;;;;;;;;;;;-1.00;99.90;;;;;;5026862;28;20260;-72
2022/12/15 03:04:44;;;;;;;;;;;-1.00;99.90;;;;;;5024945;28;19932;-71
2022/12/15 03:07:15;;;;;;;;;;;-1.10;99.90;;;;;;5020424;28;19987;-72
2022/12/15 03:09:47;;;;;;;;;;;-1.10;99.90;;;;;;5025682;28;19936;-72
2022/12/15 03:12:19;;;;;;;;;;;-1.10;99.90;;;;;;5015341;28;19980;-72
2022/12/15 03:14:45;;;;;;;;;;;-1.10;99.90;;;;;;5027849;28;19937;-72
2022/12/15 03:17:12;;;;;;;;;;;-1.10;99.90;;;;;;5011953;28;19929;-72
2022/12/15 03:19:38;;;;;;;;;;;-1.20;99.90;;;;;;5018990;28;19961;-72
2022/12/15 03:22:10;;;;;;;;;;;-1.20;99.90;;;;;;5026035;28;20500;-72
2022/12/15 03:24:41;;;;;;;;;;;-1.20;99.90;;;;;;5018145;28;19954;-72
2022/12/15 03:27:13;;;;;;;;;;;-1.20;99.90;;;;;;5026856;28;19925;-72
2022/12/15 03:29:40;;;;;;;;;;;-1.20;99.90;;;;;;5023444;28;19933;-71
2022/12/15 03:32:07;;;;;;;;;;;-1.20;99.90;;;;;;5027595;28;20342;-72
2022/12/15 03:34:38;;;;;;;;;;;-1.30;99.90;;;;;;5008037;28;19977;-72
2022/12/15 03:37:05;;;;;;;;;;;-1.30;99.90;;;;;;5023142;28;19987;-71
2022/12/15 03:39:36;;;;;;;;;;;-1.30;99.90;;;;;;5026237;28;19925;-72
2022/12/15 03:42:08;;;;;;;;;;;-1.30;99.90;;;;;;5003524;28;19933;-72
2022/12/15 03:44:40;;;;;;;;;;;-1.30;99.90;;;;;;5026700;28;19925;-72
2022/12/15 03:47:11;;;;;;;;;;;-1.30;99.90;;;;;;5003317;28;19983;-72
2022/12/15 03:49:43;;;;;;;;;;;-1.30;99.90;;;;;;5025316;28;19925;-72
2022/12/15 03:52:14;;;;;;;;;;;-1.30;99.90;;;;;;5020403;28;19929;-72
2022/12/15 03:54:46;;;;;;;;;;;-1.30;99.90;;;;;;5026171;28;19955;-72
2022/12/15 03:57:17;;;;;;;;;;;-1.30;99.90;;;;;;5013989;28;20406;-72
2022/12/15 03:59:49;;;;;;;;;;;-1.30;99.90;;;;;;5027125;28;19929;-71
2022/12/15 04:02:15;;;;;;;;;;;-1.30;99.90;;;;;;5016859;28;19932;-72
2022/12/15 04:04:47;;;;;;;;;;;-1.30;99.90;;;;;;5024017;28;19984;-72
2022/12/15 04:07:19;;;;;;;;;;;-1.30;99.90;;;;;;5020160;28;20276;-72
2022/12/15 04:09:50;;;;;;;;;;;-1.30;99.90;;;;;;5024342;28;19933;-71
2022/12/15 04:12:22;;;;;;;;;;;-1.30;99.90;;;;;;5021528;28;19925;-72
2022/12/15 04:14:48;;;;;;;;;;;-1.40;99.90;;;;;;5009837;28;19929;-72
2022/12/15 04:17:20;;;;;;;;;;;-1.40;99.90;;;;;;5026148;28;19957;-71
2022/12/15 04:20:10;;;;;;;;;;;-1.40;99.90;;;;;;5016125;28;19948;-72
2022/12/15 04:22:42;;;;;;;;;;;-1.40;99.90;;;;;;5006140;28;19952;-72
2022/12/15 05:33:09;;;;;;;;;;;-1.70;99.90;;;;;;5029724;28;19944;-72
2022/12/15 05:35:40;;;;;;;;;;;-1.70;99.90;;;;;;5011216;28;19925;-72
2022/12/15 05:38:12;;;;;;;;;;;-1.70;99.90;;;;;;5011646;28;20276;-72
2022/12/15 05:40:44;;;;;;;;;;;-1.70;99.90;;;;;;5027117;28;19971;-71
2022/12/15 05:43:16;;;;;;;;;;;-1.70;99.90;;;;;;5027226;28;19925;-72
2022/12/15 05:45:47;;;;;;;;;;;-1.70;99.90;;;;;;5022688;28;19975;-73
2022/12/15 05:48:19;;;;;;;;;;;-1.60;99.90;;;;;;5023284;28;19925;-71
2022/12/15 05:50:46;;;;;;;;;;;-1.20;99.90;;;;;;5013497;28;19932;-71
2022/12/15 05:53:17;;;;;;;;;;;-1.00;99.90;;;;;;5022933;28;20003;-74
2022/12/15 05:55:49;;;;;;;;;;;-0.90;99.90;;;;;;5020312;28;19975;-72
2022/12/15 05:58:16;;;;;;;;;;;-0.80;99.90;;;;;;5022336;28;19932;-71
2022/12/15 06:00:47;;;;;;;;;;;-0.60;99.90;;;;;;5023573;28;19926;-72
2022/12/15 06:03:19;;;;;;;;;;;-0.30;99.90;;;;;;5022279;28;20371;-72
2022/12/15 06:05:53;;;;;;;;;;;-0.20;99.90;;;;;;5007862;28;19933;-72
2022/12/15 06:08:28;;;;;;;;;;;-0.20;99.90;;;;;;5022978;28;19925;-72
2022/12/15 06:11:00;;;;;;;;;;;-0.20;99.90;;;;;;5023555;28;19936;-72
2022/12/15 06:13:35;;;;;;;;;;;-0.40;99.90;;;;;;5025150;28;19979;-72
2022/12/15 06:16:12;;;;;;;;;;;-0.50;99.90;;;;;;5027090;28;19960;-72
2022/12/15 06:18:49;;;;;;;;;;;-0.40;99.90;;;;;;5022008;28;19932;-72
2022/12/15 06:21:20;;;;;;;;;;;-0.50;99.90;;;;;;5006945;28;19925;-71
2022/12/15 06:23:52;;;;;;;;;;;-0.60;99.90;;;;;;5027187;28;19952;-72
2022/12/15 06:26:22;;;;;;;;;;;-0.70;99.90;;;;;;5023603;28;20058;-72
2022/12/15 06:28:56;;;;;;;;;;;-0.80;99.90;;;;;;5028413;28;19929;-72
2022/12/15 06:31:28;;;;;;;;;;;-0.90;99.90;;;;;;5021927;28;19938;-72
2022/12/15 06:34:01;;;;;;;;;;;-1.00;99.90;;;;;;5023175;28;19929;-72
2022/12/15 06:36:29;;;;;;;;;;;-1.00;99.90;;;;;;5018834;28;19986;-71
2022/12/15 06:39:00;;;;;;;;;;;-1.10;99.90;;;;;;5031371;28;19925;-72
2022/12/15 06:41:32;;;;;;;;;;;-1.20;99.90;;;;;;5025580;28;19926;-72
2022/12/15 06:44:03;;;;;;;;;;;-1.20;99.90;;;;;;5024987;28;19932;-72
2022/12/15 06:46:35;;;;;;;;;;;-1.30;99.90;;;;;;5022693;28;19929;-72
2022/12/15 06:49:06;;;;;;;;;;;-1.30;99.90;;;;;;5031220;28;19925;-72
2022/12/15 06:51:33;;;;;;;;;;;-1.30;99.90;;;;;;5021392;28;19929;-71
2022/12/15 06:54:00;;;;;;;;;;;-1.40;99.90;;;;;;5142813;22;19969;-75
2022/12/15 06:56:35;;;;;;;;;;;-1.40;99.90;;;;;;5019363;28;19929;-75
2022/12/15 06:59:07;;;;;;;;;;;-1.40;99.90;;;;;;5035934;28;19925;-75
2022/12/15 07:01:40;;;;;;;;;;;-1.40;99.90;;;;;;5032174;28;19933;-76
2022/12/15 07:04:11;;;;;;;;;;;-1.30;99.90;;;;;;5014703;28;19929;-74
2022/12/15 07:06:44;;;;;;;;;;;-1.30;99.90;;;;;;5016294;28;19929;-73
2022/12/15 07:09:16;;;;;;;;;;;-1.30;99.90;;;;;;5008793;28;19975;-73
2022/12/15 07:11:50;;;;;;;;;;;-1.30;99.90;;;;;;5010503;28;20383;-74
2022/12/15 07:14:22;;;;;;;;;;;-1.30;99.90;;;;;;5009148;28;19980;-75
2022/12/15 07:16:54;;;;;;;;;;;-1.30;99.90;;;;;;4996295;28;20390;-73
2022/12/15 07:19:25;;;;;;;;;;;-1.40;99.90;;;;;;5030067;28;19948;-75
2022/12/15 07:21:58;;;;;;;;;;;-1.40;99.90;;;;;;5026388;28;19980;-74
2022/12/15 07:24:30;;;;;;;;;;;-1.30;99.90;;;;;;5027964;28;20303;-74
2022/12/15 07:27:02;;;;;;;;;;;-1.30;99.90;;;;;;5015119;28;19933;-74
2022/12/15 07:29:33;;;;;;;;;;;-1.40;99.90;;;;;;5021091;28;19925;-74
2022/12/15 07:32:05;;;;;;;;;;;-1.30;99.90;;;;;;5015985;28;19925;-74
2022/12/15 07:34:36;;;;;;;;;;;-1.40;99.90;;;;;;5018198;28;19933;-74
2022/12/15 07:37:08;;;;;;;;;;;-1.20;99.90;;;;;;5011515;28;19926;-74
2022/12/15 07:39:40;;;;;;;;;;;-0.80;99.90;;;;;;5006039;28;19926;-74
2022/12/15 07:42:11;;;;;;;;;;;-0.60;99.90;;;;;;5011389;28;19932;-73
2022/12/15 07:44:38;;;;;;;;;;;-0.40;99.90;;;;;;5011546;28;19925;-74
2022/12/15 07:47:09;;;;;;;;;;;-0.20;99.90;;;;;;5007963;28;19925;-74
2022/12/15 07:49:36;;;;;;;;;;;-0.20;99.90;;;;;;5017277;28;19930;-74
2022/12/15 07:52:08;;;;;;;;;;;-0.30;99.90;;;;;;5017006;28;19929;-74
2022/12/15 07:54:39;;;;;;;;;;;-0.40;99.90;;;;;;5011280;28;19926;-74
2022/12/15 07:57:06;;;;;;;;;;;-0.50;99.90;;;;;;5014964;28;19955;-73
2022/12/15 07:59:33;;;;;;;;;;;-0.60;99.90;;;;;;5021393;28;19955;-75
2022/12/15 08:02:00;;;;;;;;;;;-0.70;99.90;;;;;;4986010;28;20294;-72
2022/12/15 08:04:32;;;;;;;;;;;-0.80;99.90;;;;;;5005222;28;20631;-74
2022/12/15 08:06:58;;;;;;;;;;;-0.90;99.90;;;;;;5031121;28;20342;-73
2022/12/15 08:09:33;;;;;;;;;;;-0.90;99.90;;;;;;5004117;28;20342;-73
2022/12/15 08:12:04;;;;;;;;;;;-0.90;99.90;;;;;;4988502;28;19925;-73
2022/12/15 08:14:36;;;;;;;;;;;-0.90;99.90;;;;;;4996505;28;19925;-74
2022/12/15 08:17:08;;;;;;;;;;;-0.90;99.90;;;;;;5020813;28;19975;-75
2022/12/15 08:19:39;;;;;;;;;;;-1.00;99.90;;;;;;5013393;28;19925;-75
2022/12/15 08:22:11;;;;;;;;;;;-1.00;99.90;;;;;;5009767;28;19926;-74
2022/12/15 08:24:39;;;;;;;;;;;-1.00;99.90;;;;;;5020043;28;19929;-73
2022/12/15 08:27:10;;;;;;;;;;;-0.90;99.90;;;;;;5014254;28;19929;-74
2022/12/15 08:29:42;;;;;;;;;;;-0.90;99.90;;;;;;4993559;28;19933;-74
2022/12/15 08:32:13;;;;;;;;;;;-0.90;99.90;;;;;;5020842;28;19956;-75
2022/12/15 08:34:46;;;;;;;;;;;-0.90;99.90;;;;;;5013443;28;19955;-75
2022/12/15 08:37:13;;;;;;;;;;;-0.80;99.90;;;;;;5029396;28;19933;-73
2022/12/15 08:39:44;;;;;;;;;;;-0.80;99.90;;;;;;5023205;28;19983;-74
2022/12/15 08:42:16;;;;;;;;;;;-0.80;99.90;;;;;;5011567;28;19925;-75
2022/12/15 08:44:49;;;;;;;;;;;-0.80;99.90;;;;;;5012914;28;19971;-74
2022/12/15 08:47:20;;;;;;;;;;;-0.70;99.90;;;;;;5013343;28;20387;-73
2022/12/15 08:49:47;;;;;;;;;;;-0.70;99.90;;;;;;5009166;28;20430;-73
2022/12/15 08:52:19;;;;;;;;;;;-0.70;99.90;;;;;;5009771;28;19929;-74
2022/12/15 08:54:51;;;;;;;;;;;-0.70;99.90;;;;;;5010212;28;19925;-74
2022/12/15 08:57:22;;;;;;;;;;;-0.60;99.90;;;;;;5015668;28;19934;-74
2022/12/15 08:59:49;;;;;;;;;;;-0.60;99.90;;;;;;5013488;28;19956;-75
2022/12/15 09:02:21;;;;;;;;;;;-0.50;99.90;;;;;;5018296;28;19925;-75
2022/12/15 09:04:53;;;;;;;;;;;-0.40;99.90;;;;;;5016580;28;20464;-74
2022/12/15 09:07:24;;;;;;;;;;;-0.40;99.90;;;;;;5022453;28;19968;-74
2022/12/15 09:09:56;;;;;;;;;;;-0.30;99.90;;;;;;5004705;28;19975;-75
2022/12/15 09:12:27;;;;;;;;;;;-0.30;99.90;;;;;;5026270;28;19925;-73
2022/12/15 09:14:59;;;;;;;;;;;-0.30;99.90;;;;;;5006010;28;19960;-74
2022/12/15 09:17:31;;;;;;;;;;;-0.20;99.90;;;;;;5009595;28;19972;-73
2022/12/15 09:20:03;;;;;;;;;;;-0.10;99.90;;;;;;5006123;28;20695;-74
2022/12/15 09:22:35;;;;;;;;;;;0.00;99.90;;;;;;5024108;28;19925;-73
2022/12/15 09:25:07;;;;;;;;;;;0.00;99.90;;;;;;5021831;28;19971;-75
2022/12/15 09:27:38;;;;;;;;;;;-0.10;99.90;;;;;;5028701;28;19932;-75
2022/12/15 09:30:10;;;;;;;;;;;-0.10;99.90;;;;;;5009697;28;19929;-74
2022/12/15 09:32:42;;;;;;;;;;;0.00;99.90;;;;;;5006110;28;19929;-73
2022/12/15 09:35:13;;;;;;;;;;;0.00;99.90;;;;;;5011268;28;19956;-74
2022/12/15 09:37:40;;;;;;;;;;;0.00;99.90;;;;;;5001730;28;19929;-74
2022/12/15 09:40:12;;;;;;;;;;;0.00;99.90;;;;;;5030677;28;19932;-73
2022/12/15 09:42:49;;;;;;;;;;;0.10;99.90;;;;;;5012500;28;20326;-76
2022/12/15 09:45:33;;;;;;;;;;;0.20;99.90;;;;;;5009121;28;20327;-74
2022/12/15 09:48:01;;;;;;;;;;;0.10;99.90;;;;;;4996939;28;19926;-73
2022/12/15 09:50:34;;;;;;;;;;;0.10;99.90;;;;;;5024660;28;19929;-74
2022/12/15 09:53:09;;;;;;;;;;;0.10;99.90;;;;;;5013749;28;19925;-74
2022/12/15 09:55:41;;;;;;;;;;;0.20;99.90;;;;;;5010312;28;19925;-73
2022/12/15 09:58:32;;;;;;;;;;;0.20;99.90;;;;;;5021258;28;19937;-75
2022/12/15 10:01:24;;;;;;;;;;;0.20;99.90;;;;;;5028161;28;20044;-76
2022/12/15 10:04:14;;;;;;;;;;;0.20;99.90;;;;;;5009994;28;19975;-74
2022/12/15 10:06:53;;;;;;;;;;;0.30;99.90;;;;;;5024887;28;20346;-73
2022/12/15 10:09:28;;;;;;;;;;;0.40;99.90;;;;;;5013274;28;19925;-75
2022/12/15 10:12:11;;;;;;;;;;;0.40;99.90;;;;;;5013430;28;19925;-74
2022/12/15 10:14:38;;;;;;;;;;;0.40;99.90;;;;;;5002654;28;20331;-74
2022/12/15 10:17:11;;;;;;;;;;;0.50;99.90;;;;;;5022688;28;19959;-75
2022/12/15 10:19:46;;;;;;;;;;;0.40;99.90;;;;;;5015460;28;19932;-74
2022/12/15 10:22:36;;;;;;;;;;;0.40;99.90;;;;;;5028391;28;20467;-74
2022/12/15 10:25:19;;;;;;;;;;;0.50;99.90;;;;;;4997691;28;19933;-75
2022/12/15 10:28:09;;;;;;;;;;;0.60;99.90;;;;;;5012571;28;20039;-75
2022/12/15 10:31:02;;;;;;;;;;;0.60;99.90;;;;;;5033012;28;19979;-75
2022/12/15 10:33:35;;;;;;;;;;;0.60;99.90;;;;;;5008031;28;20667;-74
2022/12/15 10:36:12;;;;;;;;;;;0.70;99.90;;;;;;5008491;28;20205;-73
2022/12/15 10:38:46;;;;;;;;;;;0.70;99.90;;;;;;5032005;28;20492;-74
2022/12/15 10:41:19;;;;;;;;;;;0.70;99.90;;;;;;5008257;28;20463;-75
2022/12/15 10:43:51;;;;;;;;;;;0.80;99.90;;;;;;5028128;28;19975;-75
2022/12/15 10:46:27;;;;;;;;;;;0.80;99.90;;;;;;5011122;28;20442;-74
2022/12/15 10:48:59;;;;;;;;;;;0.80;99.90;;;;;;4995633;28;19932;-75
2022/12/15 10:51:36;;;;;;;;;;;0.80;99.90;;;;;;5033563;28;19988;-74
2022/12/15 10:54:08;;;;;;;;;;;0.70;99.90;;;;;;5032118;28;20387;-75
2022/12/15 10:56:57;;;;;;;;;;;0.60;99.90;;;;;;5013827;28;19983;-74
2022/12/15 10:59:37;;;;;;;;;;;0.60;99.90;;;;;;5007445;28;20480;-73
2022/12/15 11:02:24;;;;;;;;;;;0.60;99.90;;;;;;4998234;28;19980;-75
2022/12/15 11:05:14;;;;;;;;;;;0.50;99.90;;;;;;5009801;28;20406;-73
2022/12/15 11:07:48;;;;;;;;;;;0.50;99.90;;;;;;5010407;28;19932;-74
2022/12/15 11:10:24;;;;;;;;;;;0.50;99.90;;;;;;5010602;28;19976;-74
2022/12/15 11:13:09;;;;;;;;;;;0.50;99.90;;;;;;5032334;28;19979;-74
2022/12/15 11:15:40;;;;;;;;;;;0.50;99.90;;;;;;5034252;28;20592;-74
2022/12/15 11:18:31;;;;;;;;;;;0.50;99.90;;;;;;5027074;28;19967;-74
2022/12/15 11:21:02;;;;;;;;;;;0.40;99.90;;;;;;5027749;28;19925;-74
2022/12/15 11:23:44;;;;;;;;;;;0.50;99.90;;;;;;4999569;28;20401;-74
2022/12/15 11:26:17;;;;;;;;;;;0.40;99.90;;;;;;5029725;28;19987;-74
2022/12/15 11:28:51;;;;;;;;;;;0.50;99.90;;;;;;4998405;28;19928;-74
2022/12/15 11:31:26;;;;;;;;;;;0.40;99.90;;;;;;5012074;28;19925;-74
2022/12/15 11:33:58;;;;;;;;;;;0.40;99.90;;;;;;4996297;28;19932;-75
2022/12/15 11:36:37;;;;;;;;;;;0.40;99.90;;;;;;5030641;28;19925;-73
2022/12/15 11:39:25;;;;;;;;;;;0.40;99.90;;;;;;5028667;28;19926;-74
2022/12/15 11:42:06;;;;;;;;;;;0.40;99.90;;;;;;5024367;28;19926;-75
2022/12/15 11:44:42;;;;;;;;;;;0.40;99.90;;;;;;5028409;28;19936;-74
2022/12/15 11:47:13;;;;;;;;;;;0.40;99.90;;;;;;5012356;28;19925;-75
2022/12/15 11:50:03;;;;;;;;;;;0.30;99.90;;;;;;5026522;28;19930;-73
2022/12/15 11:52:38;;;;;;;;;;;0.30;99.90;;;;;;5011689;28;19933;-75
2022/12/15 11:55:09;;;;;;;;;;;0.30;99.90;;;;;;5027330;28;19971;-75
2022/12/15 11:58:07;;;;;;;;;;;0.30;99.90;;;;;;5027234;28;19937;-73
2022/12/15 12:00:41;;;;;;;;;;;0.30;99.90;;;;;;5012640;28;19929;-73
2022/12/15 12:03:12;;;;;;;;;;;0.30;99.90;;;;;;5013567;28;20410;-74
2022/12/15 12:05:47;;;;;;;;;;;0.30;99.90;;;;;;4991583;28;19929;-75
2022/12/15 12:08:27;;;;;;;;;;;0.30;99.90;;;;;;4988442;28;19925;-75
2022/12/15 12:11:06;;;;;;;;;;;0.30;99.90;;;;;;5020518;28;20745;-73
2022/12/15 12:13:52;;;;;;;;;;;0.30;99.90;;;;;;5002488;28;19960;-74
2022/12/15 12:16:27;;;;;;;;;;;0.30;99.90;;;;;;5010168;28;19933;-74
2022/12/15 12:19:09;;;;;;;;;;;0.30;99.90;;;;;;5011398;28;20487;-75
2022/12/15 12:21:43;;;;;;;;;;;0.30;99.90;;;;;;5002147;28;20303;-75
2022/12/15 12:24:14;;;;;;;;;;;0.20;99.90;;;;;;5001487;28;19935;-74
2022/12/15 12:26:52;;;;;;;;;;;0.20;99.90;;;;;;5011455;28;19925;-75
2022/12/15 12:29:27;;;;;;;;;;;0.20;99.90;;;;;;4991833;28;19960;-73
2022/12/15 12:32:04;;;;;;;;;;;0.20;99.90;;;;;;5027202;28;20345;-73
2022/12/15 12:34:59;;;;;;;;;;;0.10;99.90;;;;;;4987087;28;19971;-75
2022/12/15 12:37:37;;;;;;;;;;;0.10;99.90;;;;;;5027161;28;20020;-75
2022/12/15 12:40:15;;;;;;;;;;;0.10;99.90;;;;;;5009180;28;20302;-75
2022/12/15 12:42:51;;;;;;;;;;;0.10;99.90;;;;;;5013061;28;19925;-74
2022/12/15 12:45:35;;;;;;;;;;;0.10;99.90;;;;;;5021818;28;19925;-75
2022/12/15 12:48:33;;;;;;;;;;;0.00;99.90;;;;;;5028743;28;19926;-74
2022/12/15 12:51:11;;;;;;;;;;;0.00;99.90;;;;;;5007668;28;19934;-74
2022/12/15 12:53:43;;;;;;;;;;;0.10;99.90;;;;;;5026312;28;19952;-75
2022/12/15 12:56:29;;;;;;;;;;;0.10;99.90;;;;;;5022719;28;19983;-75
2022/12/15 12:59:06;;;;;;;;;;;0.10;99.90;;;;;;5011473;28;19925;-74
2022/12/15 13:01:38;;;;;;;;;;;0.10;99.90;;;;;;5015541;28;19929;-74
2022/12/15 13:04:33;;;;;;;;;;;0.20;99.90;;;;;;5010580;28;20497;-74
2022/12/15 13:07:02;;;;;;;;;;;0.10;99.90;;;;;;5009512;28;19929;-74
2022/12/15 13:09:37;;;;;;;;;;;0.20;99.90;;;;;;5003447;28;20327;-74
2022/12/15 13:12:31;;;;;;;;;;;0.20;99.90;;;;;;5025676;28;19931;-75
2022/12/15 13:14:59;;;;;;;;;;;0.10;99.90;;;;;;5026313;28;19987;-74
2022/12/15 13:17:36;;;;;;;;;;;0.10;99.90;;;;;;5020887;28;19996;-75
2022/12/15 13:20:05;;;;;;;;;;;0.00;99.90;;;;;;5005652;28;19933;-74
2022/12/15 13:22:39;;;;;;;;;;;0.00;99.90;;;;;;4994493;28;20537;-75
2022/12/15 13:25:25;;;;;;;;;;;0.10;99.90;;;;;;5027121;28;19925;-73
2022/12/15 13:27:58;;;;;;;;;;;0.10;99.90;;;;;;5009446;28;19925;-74
2022/12/15 13:30:30;;;;;;;;;;;0.20;99.90;;;;;;5009880;28;19926;-74
2022/12/15 13:33:16;;;;;;;;;;;0.20;99.90;;;;;;4993705;28;19929;-75
2022/12/15 13:35:48;;;;;;;;;;;0.20;99.90;;;;;;5008494;28;20541;-76
2022/12/15 13:38:39;;;;;;;;;;;0.10;99.90;;;;;;5007415;28;19925;-74
2022/12/15 13:41:21;;;;;;;;;;;0.00;99.90;;;;;;5029725;28;21757;-76
2022/12/15 13:43:52;;;;;;;;;;;0.00;99.90;;;;;;5007621;28;19925;-75
2022/12/15 13:46:26;;;;;;;;;;;-0.10;99.90;;;;;;5027257;28;19925;-74
2022/12/15 13:49:01;;;;;;;;;;;0.00;99.90;;;;;;4993615;28;19979;-74
2022/12/15 13:51:42;;;;;;;;;;;0.00;99.90;;;;;;5032649;28;19988;-74
2022/12/15 13:54:15;;;;;;;;;;;0.00;99.90;;;;;;5029772;28;19932;-74
2022/12/15 13:56:49;;;;;;;;;;;-0.10;99.90;;;;;;5031578;28;19925;-74
2022/12/15 13:59:21;;;;;;;;;;;-0.10;99.90;;;;;;5015966;28;19929;-73
2022/12/15 14:01:53;;;;;;;;;;;-0.10;99.90;;;;;;5032142;28;20357;-73
2022/12/15 14:04:25;;;;;;;;;;;-0.10;99.90;;;;;;5026889;28;19929;-73
2022/12/15 14:06:59;;;;;;;;;;;-0.10;99.90;;;;;;5015476;28;19929;-75
2022/12/15 14:09:32;;;;;;;;;;;-0.10;99.90;;;;;;5018723;28;19935;-76
2022/12/15 14:12:06;;;;;;;;;;;-0.20;99.90;;;;;;4996198;28;19929;-73
2022/12/15 14:14:35;;;;;;;;;;;-0.20;99.90;;;;;;5005760;28;19933;-73
2022/12/15 14:17:08;;;;;;;;;;;-0.20;99.90;;;;;;5012321;28;20633;-75
2022/12/15 14:19:41;;;;;;;;;;;-0.20;99.90;;;;;;5015771;28;19983;-74
2022/12/15 14:22:27;;;;;;;;;;;-0.20;99.90;;;;;;5027300;28;20409;-76
2022/12/15 14:25:12;;;;;;;;;;;-0.30;99.90;;;;;;4996879;28;20391;-74
2022/12/15 14:27:43;;;;;;;;;;;-0.30;99.90;;;;;;4998039;28;19957;-74
2022/12/15 14:30:34;;;;;;;;;;;-0.30;99.90;;;;;;5003636;28;19979;-74
2022/12/15 14:33:03;;;;;;;;;;;-0.30;99.90;;;;;;5003389;28;19933;-75
2022/12/15 14:35:31;;;;;;;;;;;-0.20;99.90;;;;;;5030239;28;19948;-74
2022/12/15 14:38:05;;;;;;;;;;;-0.20;99.90;;;;;;5022813;28;19980;-74
2022/12/15 14:40:38;;;;;;;;;;;-0.30;99.90;;;;;;5030429;28;19929;-78
2022/12/15 14:43:08;;;;;;;;;;;-0.30;99.90;;;;;;5023708;28;19933;-74
2022/12/15 14:45:35;;;;;;;;;;;-0.30;99.90;;;;;;5013234;28;19936;-75
2022/12/15 14:48:07;;;;;;;;;;;-0.20;99.90;;;;;;5010079;28;20357;-75
2022/12/15 14:50:44;;;;;;;;;;;-0.20;99.90;;;;;;5013419;28;19983;-74
2022/12/15 14:53:17;;;;;;;;;;;-0.30;99.90;;;;;;4963658;28;1847167;-74
2022/12/15 14:55:48;;;;;;;;;;;-0.30;99.90;;;;;;5012384;28;19925;-74
2022/12/15 14:58:38;;;;;;;;;;;-0.30;99.90;;;;;;5014494;28;19925;-74
2022/12/15 15:01:28;;;;;;;;;;;-0.30;99.90;;;;;;5031787;28;19926;-75
2022/12/15 15:04:04;;;;;;;;;;;-0.40;99.90;;;;;;5008903;28;19929;-73
2022/12/15 15:06:37;;;;;;;;;;;-0.40;99.90;;;;;;5009115;28;19932;-73
2022/12/15 15:09:15;;;;;;;;;;;-0.40;99.90;;;;;;5030565;28;19925;-74
2022/12/15 15:11:42;;;;;;;;;;;-0.40;99.90;;;;;;5012155;28;20008;-73
2022/12/15 15:14:27;;;;;;;;;;;-0.40;99.90;;;;;;5010452;28;20047;-74
2022/12/15 15:17:17;;;;;;;;;;;-0.50;99.90;;;;;;5028457;28;20732;-76
2022/12/15 15:19:54;;;;;;;;;;;-0.50;99.90;;;;;;5012715;28;20572;-73
2022/12/15 15:22:34;;;;;;;;;;;-0.50;99.90;;;;;;5027296;28;19929;-74
2022/12/15 15:25:25;;;;;;;;;;;-0.50;99.90;;;;;;5021488;28;19979;-75
2022/12/15 15:28:14;;;;;;;;;;;-0.50;99.90;;;;;;5004492;28;19925;-75
2022/12/15 15:30:46;;;;;;;;;;;-0.50;99.90;;;;;;4987114;28;19929;-73
2022/12/15 15:33:12;;;;;;;;;;;-0.50;99.90;;;;;;5030585;28;20284;-75
2022/12/15 15:35:46;;;;;;;;;;;-0.50;99.90;;;;;;5011874;28;20292;-75
2022/12/15 15:38:31;;;;;;;;;;;-0.50;99.90;;;;;;5030249;28;19925;-73
2022/12/15 15:41:12;;;;;;;;;;;-0.50;99.90;;;;;;5022281;28;19929;-74
2022/12/15 15:43:44;;;;;;;;;;;-0.50;99.90;;;;;;5023986;28;19925;-74
2022/12/15 15:46:15;;;;;;;;;;;-0.50;99.90;;;;;;4997536;28;19937;-74
2022/12/15 15:48:49;;;;;;;;;;;-0.20;99.90;;;;;;5011150;28;19929;-75
2022/12/15 15:51:16;;;;;;;;;;;-0.10;99.90;;;;;;4993960;28;19926;-75
2022/12/15 15:53:48;;;;;;;;;;;-0.10;99.90;;;;;;4996125;28;19925;-74
2022/12/15 15:56:20;;;;;;;;;;;-0.20;99.90;;;;;;5022268;28;19925;-74
2022/12/15 15:58:52;;;;;;;;;;;-0.10;99.90;;;;;;4992660;28;19925;-73
2022/12/15 16:01:23;;;;;;;;;;;0.20;99.90;;;;;;5031490;28;19991;-75
2022/12/15 16:03:55;;;;;;;;;;;0.60;99.90;;;;;;4986003;28;19925;-72
2022/12/15 16:06:27;;;;;;;;;;;0.60;99.90;;;;;;5027085;28;19955;-75
2022/12/15 16:08:53;;;;;;;;;;;0.50;99.90;;;;;;5021827;28;19932;-74
2022/12/15 16:11:26;;;;;;;;;;;0.40;99.90;;;;;;5023577;28;19983;-74
2022/12/15 16:14:00;;;;;;;;;;;0.20;99.90;;;;;;5017451;28;19932;-74
2022/12/15 16:16:31;;;;;;;;;;;0.10;99.90;;;;;;5022189;28;20001;-74
2022/12/15 16:19:03;;;;;;;;;;;0.00;99.90;;;;;;5027397;28;19929;-74
2022/12/15 16:21:35;;;;;;;;;;;0.10;99.90;;;;;;5025389;28;19932;-75
2022/12/15 16:24:08;;;;;;;;;;;0.10;99.90;;;;;;5017299;28;19930;-74
2022/12/15 16:26:43;;;;;;;;;;;0.00;99.90;;;;;;5017412;28;19937;-75
2022/12/15 16:29:16;;;;;;;;;;;0.00;99.90;;;;;;5009876;28;19929;-76
2022/12/15 16:31:44;;;;;;;;;;;0.00;99.90;;;;;;5011417;28;20375;-74
2022/12/15 16:34:16;;;;;;;;;;;0.00;99.90;;;;;;5020595;28;19925;-74
2022/12/15 16:36:47;;;;;;;;;;;-0.10;99.90;;;;;;5009962;28;20363;-75
2022/12/15 16:39:29;;;;;;;;;;;-0.20;99.90;;;;;;5016036;28;19971;-76
2022/12/15 16:42:01;;;;;;;;;;;-0.30;99.90;;;;;;5022702;28;20288;-77
2022/12/15 16:44:28;;;;;;;;;;;-0.30;99.90;;;;;;5009889;28;20332;-75
2022/12/15 16:46:55;;;;;;;;;;;-0.40;99.90;;;;;;5006803;28;19928;-76
2022/12/15 16:49:29;;;;;;;;;;;-0.40;99.90;;;;;;5011304;28;19932;-75
2022/12/15 16:52:01;;;;;;;;;;;-0.50;99.90;;;;;;5002081;28;19972;-73
2022/12/15 16:54:29;;;;;;;;;;;-0.50;99.90;;;;;;5000282;28;19926;-76
2022/12/15 16:57:01;;;;;;;;;;;-0.60;99.90;;;;;;5007318;28;19944;-73
2022/12/15 16:59:32;;;;;;;;;;;-0.60;99.90;;;;;;4990583;28;19983;-76
2022/12/15 17:01:59;;;;;;;;;;;-0.60;99.90;;;;;;4995271;28;19925;-74
2022/12/15 17:04:30;;;;;;;;;;;-0.60;99.90;;;;;;5023284;28;19932;-73
2022/12/15 17:06:57;;;;;;;;;;;-0.70;99.90;;;;;;5011281;28;19929;-76
2022/12/15 17:09:29;;;;;;;;;;;-0.70;99.90;;;;;;5013672;28;19979;-76
2022/12/15 17:12:00;;;;;;;;;;;-0.70;99.90;;;;;;5022907;28;19925;-73
2022/12/15 17:14:32;;;;;;;;;;;-0.70;99.90;;;;;;5020023;28;20411;-76
2022/12/15 17:17:11;;;;;;;;;;;-0.70;99.90;;;;;;4989543;28;20354;-73
2022/12/15 17:19:37;;;;;;;;;;;-0.70;99.90;;;;;;5026126;28;19929;-74
2022/12/15 17:22:13;;;;;;;;;;;-0.70;99.90;;;;;;5021849;28;19987;-72
2022/12/15 17:24:45;;;;;;;;;;;-0.70;99.90;;;;;;5020351;28;19980;-76
2022/12/15 17:27:20;;;;;;;;;;;-0.70;99.90;;;;;;5007894;28;19956;-73